sensor_id;sensor_type;location;lat;lon;timestamp;pressure;altitude;pressure_sealevel;temperature;humidity
76973;BME280;65907;53.640;10.050;2023-10-08T00:00:47;101419.50;;;22.27;52.02
76973;BME280;65907;53.640;10.050;2023-10-08T00:03:14;101430.19;;;22.24;52.16
76973;BME280;65907;53.640;10.050;2023-10-08T00:05:40;101430.19;;;22.24;52.08
76973;BME280;65907;53.640;10.050;2023-10-08T00:08:06;101436.50;;;22.22;52.11
76973;BME280;65907;53.640;10.050;2023-10-08T00:10:38;101447.00;;;22.22;51.99
76973;BME280;65907;53.640;10.050;2023-10-08T00:13:06;101458.03;;;22.25;52.33
76973;BME280;65907;53.640;10.050;2023-10-08T00:15:41;101459.13;;;22.23;52.21
76973;BME280;65907;53.640;10.050;2023-10-08T00:18:20;101454.84;;;22.22;52.02
76973;BME280;65907;53.640;10.050;2023-10-08T00:20:47;101460.69;;;22.14;52.34
76973;BME280;65907;53.640;10.050;2023-10-08T00:23:20;101460.31;;;22.18;51.95
76973;BME280;65907;53.640;10.050;2023-10-08T00:25:48;101456.75;;;22.19;52.09
76973;BME280;65907;53.640;10.050;2023-10-08T00:28:15;101451.63;;;22.18;52.01
76973;BME280;65907;53.640;10.050;2023-10-08T00:30:42;101466.16;;;22.22;51.79
76973;BME280;65907;53.640;10.050;2023-10-08T00:33:10;101466.16;;;22.22;52.13
76973;BME280;65907;53.640;10.050;2023-10-08T00:35:39;101476.75;;;22.20;52.03
76973;BME280;65907;53.640;10.050;2023-10-08T00:38:06;101496.16;;;22.18;51.99
76973;BME280;65907;53.640;10.050;2023-10-08T00:40:39;101510.09;;;22.18;52.05
76973;BME280;65907;53.640;10.050;2023-10-08T00:43:05;101508.44;;;22.17;51.97
76973;BME280;65907;53.640;10.050;2023-10-08T00:45:35;101522.97;;;22.22;51.96
76973;BME280;65907;53.640;10.050;2023-10-08T00:48:00;101525.81;;;22.18;51.93
76973;BME280;65907;53.640;10.050;2023-10-08T00:50:28;101542.34;;;22.19;51.80
76973;BME280;65907;53.640;10.050;2023-10-08T00:53:07;101546.06;;;22.16;52.06
76973;BME280;65907;53.640;10.050;2023-10-08T00:55:46;101550.56;;;22.14;52.30
76973;BME280;65907;53.640;10.050;2023-10-08T00:58:18;101554.97;;;22.14;52.25
76973;BME280;65907;53.640;10.050;2023-10-08T01:00:50;101552.97;;;22.17;52.06
76973;BME280;65907;53.640;10.050;2023-10-08T01:03:17;101561.03;;;22.14;51.76
76973;BME280;65907;53.640;10.050;2023-10-08T01:05:44;101563.06;;;22.11;51.99
76973;BME280;65907;53.640;10.050;2023-10-08T01:08:12;101576.88;;;22.13;52.27
76973;BME280;65907;53.640;10.050;2023-10-08T01:10:43;101586.16;;;22.17;51.71
76973;BME280;65907;53.640;10.050;2023-10-08T01:13:08;101594.75;;;22.19;51.86
76973;BME280;65907;53.640;10.050;2023-10-08T01:15:39;101601.50;;;22.10;51.94
76973;BME280;65907;53.640;10.050;2023-10-08T01:18:06;101599.59;;;22.12;51.70
76973;BME280;65907;53.640;10.050;2023-10-08T01:20:39;101600.56;;;22.11;52.13
76973;BME280;65907;53.640;10.050;2023-10-08T01:23:14;101603.06;;;22.13;52.00
76973;BME280;65907;53.640;10.050;2023-10-08T01:25:45;101598.78;;;22.12;51.81
76973;BME280;65907;53.640;10.050;2023-10-08T01:28:17;101596.25;;;22.10;51.96
76973;BME280;65907;53.640;10.050;2023-10-08T01:30:53;101613.66;;;22.11;51.79
76973;BME280;65907;53.640;10.050;2023-10-08T01:33:19;101619.72;;;22.12;51.78
76973;BME280;65907;53.640;10.050;2023-10-08T01:35:54;101622.34;;;22.12;51.75
76973;BME280;65907;53.640;10.050;2023-10-08T01:38:19;101615.53;;;22.09;51.97
76973;BME280;65907;53.640;10.050;2023-10-08T01:40:49;101587.59;;;22.10;51.78
76973;BME280;65907;53.640;10.050;2023-10-08T01:43:16;101597.34;;;22.08;52.08
76973;BME280;65907;53.640;10.050;2023-10-08T01:45:42;101614.59;;;22.10;51.60
76973;BME280;65907;53.640;10.050;2023-10-08T01:48:08;101624.97;;;22.12;51.71
76973;BME280;65907;53.640;10.050;2023-10-08T01:50:34;101632.22;;;22.08;51.71
76973;BME280;65907;53.640;10.050;2023-10-08T01:53:00;101634.72;;;22.10;51.83
76973;BME280;65907;53.640;10.050;2023-10-08T01:55:25;101614.72;;;22.09;51.85
76973;BME280;65907;53.640;10.050;2023-10-08T01:57:58;101626.88;;;22.10;51.57
76973;BME280;65907;53.640;10.050;2023-10-08T02:00:23;101645.31;;;22.08;51.56
76973;BME280;65907;53.640;10.050;2023-10-08T02:02:51;101643.41;;;22.10;51.50
76973;BME280;65907;53.640;10.050;2023-10-08T02:05:17;101634.72;;;22.10;51.78
76973;BME280;65907;53.640;10.050;2023-10-08T02:07:47;101646.97;;;22.09;51.68
76973;BME280;65907;53.640;10.050;2023-10-08T02:10:12;101631.41;;;22.08;51.55
76973;BME280;65907;53.640;10.050;2023-10-08T02:12:40;101626.03;;;22.09;51.63
76973;BME280;65907;53.640;10.050;2023-10-08T02:15:11;101622.47;;;22.10;51.55
76973;BME280;65907;53.640;10.050;2023-10-08T02:17:36;101628.53;;;22.11;51.51
76973;BME280;65907;53.640;10.050;2023-10-08T02:20:03;101631.41;;;22.08;51.59
76973;BME280;65907;53.640;10.050;2023-10-08T02:22:30;101630.94;;;22.14;51.58
76973;BME280;65907;53.640;10.050;2023-10-08T02:24:55;101615.31;;;22.12;51.46
76973;BME280;65907;53.640;10.050;2023-10-08T02:27:26;101602.44;;;22.09;51.80
76973;BME280;65907;53.640;10.050;2023-10-08T02:29:52;101613.06;;;22.08;51.62
76973;BME280;65907;53.640;10.050;2023-10-08T02:32:17;101621.72;;;22.08;51.43
76973;BME280;65907;53.640;10.050;2023-10-08T02:34:43;101615.53;;;22.09;51.30
76973;BME280;65907;53.640;10.050;2023-10-08T02:37:10;101612.81;;;22.11;51.63
76973;BME280;65907;53.640;10.050;2023-10-08T02:39:36;101622.69;;;22.07;51.37
76973;BME280;65907;53.640;10.050;2023-10-08T02:42:01;101615.69;;;22.08;51.58
76973;BME280;65907;53.640;10.050;2023-10-08T02:44:26;101623.31;;;22.11;51.26
76973;BME280;65907;53.640;10.050;2023-10-08T02:46:52;101632.22;;;22.08;51.38
76973;BME280;65907;53.640;10.050;2023-10-08T02:49:21;101627.81;;;22.09;51.50
76973;BME280;65907;53.640;10.050;2023-10-08T02:51:48;101628.53;;;22.11;51.39
76973;BME280;65907;53.640;10.050;2023-10-08T02:54:15;101633.88;;;22.09;51.46
76973;BME280;65907;53.640;10.050;2023-10-08T02:56:47;101644.25;;;22.11;51.18
76973;BME280;65907;53.640;10.050;2023-10-08T02:59:16;101645.94;;;22.12;51.22
76973;BME280;65907;53.640;10.050;2023-10-08T03:01:41;101641.50;;;22.12;51.34
76973;BME280;65907;53.640;10.050;2023-10-08T03:04:07;101617.94;;;22.12;51.22
76973;BME280;65907;53.640;10.050;2023-10-08T03:06:42;101608.78;;;22.06;51.47
76973;BME280;65907;53.640;10.050;2023-10-08T03:09:08;101615.53;;;22.09;51.33
76973;BME280;65907;53.640;10.050;2023-10-08T03:11:33;101620.91;;;22.08;51.32
76973;BME280;65907;53.640;10.050;2023-10-08T03:14:00;101615.44;;;22.11;51.15
76973;BME280;65907;53.640;10.050;2023-10-08T03:16:26;101622.34;;;22.12;51.14
76973;BME280;65907;53.640;10.050;2023-10-08T03:19:00;101619.59;;;22.13;51.01
76973;BME280;65907;53.640;10.050;2023-10-08T03:21:25;101625.78;;;22.12;51.36
76973;BME280;65907;53.640;10.050;2023-10-08T03:24:03;101641.63;;;22.11;51.05
76973;BME280;65907;53.640;10.050;2023-10-08T03:26:37;101654.41;;;22.15;51.12
76973;BME280;65907;53.640;10.050;2023-10-08T03:29:04;101665.31;;;22.09;51.30
76973;BME280;65907;53.640;10.050;2023-10-08T03:31:42;101674.03;;;22.10;51.20
76973;BME280;65907;53.640;10.050;2023-10-08T03:34:14;101680.06;;;22.10;51.11
76973;BME280;65907;53.640;10.050;2023-10-08T03:36:43;101690.06;;;22.05;51.26
76973;BME280;65907;53.640;10.050;2023-10-08T03:39:12;101688.66;;;22.12;51.03
76973;BME280;65907;53.640;10.050;2023-10-08T03:41:43;101683.41;;;22.12;51.00
76973;BME280;65907;53.640;10.050;2023-10-08T03:44:16;101683.53;;;22.11;50.88
76973;BME280;65907;53.640;10.050;2023-10-08T03:46:42;101680.06;;;22.10;51.17
76973;BME280;65907;53.640;10.050;2023-10-08T03:49:08;101683.88;;;22.06;50.99
76973;BME280;65907;53.640;10.050;2023-10-08T03:51:50;101677.34;;;22.12;50.99
76973;BME280;65907;53.640;10.050;2023-10-08T03:54:20;101669.50;;;22.12;50.94
76973;BME280;65907;53.640;10.050;2023-10-08T03:56:54;101680.06;;;22.10;51.11
76973;BME280;65907;53.640;10.050;2023-10-08T03:59:19;101692.00;;;22.14;50.85
76973;BME280;65907;53.640;10.050;2023-10-08T04:01:59;101687.22;;;22.08;51.13
76973;BME280;65907;53.640;10.050;2023-10-08T04:04:38;101690.47;;;22.12;51.06
76973;BME280;65907;53.640;10.050;2023-10-08T04:07:36;101685.09;;;22.13;51.07
76973;BME280;65907;53.640;10.050;2023-10-08T04:10:09;101700.31;;;22.08;50.95
76973;BME280;65907;53.640;10.050;2023-10-08T04:12:35;101708.66;;;22.13;51.14
76973;BME280;65907;53.640;10.050;2023-10-08T04:15:01;101715.69;;;22.13;50.77
76973;BME280;65907;53.640;10.050;2023-10-08T04:17:32;101720.81;;;22.14;50.88
76973;BME280;65907;53.640;10.050;2023-10-08T04:20:05;101720.94;;;22.13;50.97
76973;BME280;65907;53.640;10.050;2023-10-08T04:22:48;101725.47;;;22.11;50.72
76973;BME280;65907;53.640;10.050;2023-10-08T04:25:15;101731.28;;;22.14;50.63
76973;BME280;65907;53.640;10.050;2023-10-08T04:27:43;101723.22;;;22.17;50.72
76973;BME280;65907;53.640;10.050;2023-10-08T04:30:12;101721.66;;;22.15;50.53
76973;BME280;65907;53.640;10.050;2023-10-08T04:32:38;101738.94;;;22.17;50.64
76973;BME280;65907;53.640;10.050;2023-10-08T04:35:04;101741.66;;;22.16;50.60
76973;BME280;65907;53.640;10.050;2023-10-08T04:37:33;101738.94;;;22.17;50.66
76973;BME280;65907;53.640;10.050;2023-10-08T04:39:58;101731.19;;;22.16;50.72
76973;BME280;65907;53.640;10.050;2023-10-08T04:42:24;101725.31;;;22.12;50.93
76973;BME280;65907;53.640;10.050;2023-10-08T04:44:52;101737.38;;;22.15;50.81
76973;BME280;65907;53.640;10.050;2023-10-08T04:47:19;101731.50;;;22.11;50.77
76973;BME280;65907;53.640;10.050;2023-10-08T04:49:57;101738.66;;;22.09;50.76
76973;BME280;65907;53.640;10.050;2023-10-08T04:52:22;101739.38;;;22.11;50.76
76973;BME280;65907;53.640;10.050;2023-10-08T04:54:50;101736.03;;;22.09;50.91
76973;BME280;65907;53.640;10.050;2023-10-08T04:57:19;101737.69;;;22.10;50.66
76973;BME280;65907;53.640;10.050;2023-10-08T04:59:47;101741.50;;;22.06;50.91
76973;BME280;65907;53.640;10.050;2023-10-08T05:02:15;101732.69;;;22.07;50.59
76973;BME280;65907;53.640;10.050;2023-10-08T05:04:59;101728.63;;;22.03;50.80
76973;BME280;65907;53.640;10.050;2023-10-08T05:07:36;101722.44;;;22.04;50.88
76973;BME280;65907;53.640;10.050;2023-10-08T05:10:11;101726.50;;;22.08;50.84
76973;BME280;65907;53.640;10.050;2023-10-08T05:12:38;101729.13;;;22.08;50.94
76973;BME280;65907;53.640;10.050;2023-10-08T05:15:12;101746.72;;;22.06;50.77
76973;BME280;65907;53.640;10.050;2023-10-08T05:17:40;101752.81;;;22.06;50.63
76973;BME280;65907;53.640;10.050;2023-10-08T05:20:32;101764.03;;;22.09;50.64
76973;BME280;65907;53.640;10.050;2023-10-08T05:23:16;101769.34;;;22.07;50.71
76973;BME280;65907;53.640;10.050;2023-10-08T05:25:54;101780.78;;;22.06;50.45
76973;BME280;65907;53.640;10.050;2023-10-08T05:28:38;101781.63;;;22.06;50.48
76973;BME280;65907;53.640;10.050;2023-10-08T05:31:25;101780.78;;;22.06;50.55
76973;BME280;65907;53.640;10.050;2023-10-08T05:34:12;101769.25;;;22.09;50.60
76973;BME280;65907;53.640;10.050;2023-10-08T05:36:42;101795.22;;;22.12;50.33
76973;BME280;65907;53.640;10.050;2023-10-08T05:39:25;101798.91;;;22.09;50.51
76973;BME280;65907;53.640;10.050;2023-10-08T05:42:08;101810.44;;;22.06;50.55
76973;BME280;65907;53.640;10.050;2023-10-08T05:44:45;101808.13;;;22.02;50.96
76973;BME280;65907;53.640;10.050;2023-10-08T05:47:29;101798.28;;;22.05;50.77
76973;BME280;65907;53.640;10.050;2023-10-08T05:49:57;101793.38;;;22.01;51.00
76973;BME280;65907;53.640;10.050;2023-10-08T05:52:41;101802.28;;;21.98;50.73
76973;BME280;65907;53.640;10.050;2023-10-08T05:55:16;101815.28;;;22.00;50.66
76973;BME280;65907;53.640;10.050;2023-10-08T05:57:50;101831.72;;;22.02;50.69
76973;BME280;65907;53.640;10.050;2023-10-08T06:00:17;101836.09;;;22.01;50.92
76973;BME280;65907;53.640;10.050;2023-10-08T06:02:55;101825.44;;;22.04;50.53
76973;BME280;65907;53.640;10.050;2023-10-08T06:05:34;101833.38;;;22.03;50.68
76973;BME280;65907;53.640;10.050;2023-10-08T06:08:08;101827.19;;;22.04;50.58
76973;BME280;65907;53.640;10.050;2023-10-08T06:10:39;101828.88;;;22.05;50.56
76973;BME280;65907;53.640;10.050;2023-10-08T06:15:38;101825.31;;;22.06;50.48
76973;BME280;65907;53.640;10.050;2023-10-08T06:18:15;101832.53;;;22.02;50.57
76973;BME280;65907;53.640;10.050;2023-10-08T06:20:41;101833.06;;;22.08;50.40
76973;BME280;65907;53.640;10.050;2023-10-08T06:23:15;101824.69;;;22.02;50.58
76973;BME280;65907;53.640;10.050;2023-10-08T06:25:48;101827.41;;;22.01;50.50
76973;BME280;65907;53.640;10.050;2023-10-08T06:28:19;101838.84;;;22.00;50.62
76973;BME280;65907;53.640;10.050;2023-10-08T06:30:48;101848.47;;;21.99;50.65
76973;BME280;65907;53.640;10.050;2023-10-08T06:33:14;101847.00;;;21.95;50.74
76973;BME280;65907;53.640;10.050;2023-10-08T06:35:39;101847.66;;;21.99;50.88
76973;BME280;65907;53.640;10.050;2023-10-08T06:38:09;101852.88;;;21.99;50.72
76973;BME280;65907;53.640;10.050;2023-10-08T06:40:35;101854.78;;;21.97;50.55
76973;BME280;65907;53.640;10.050;2023-10-08T06:43:03;101857.19;;;22.00;50.57
76973;BME280;65907;53.640;10.050;2023-10-08T06:45:44;101860.00;;;21.97;50.93
76973;BME280;65907;53.640;10.050;2023-10-08T06:48:10;101873.09;;;21.97;50.48
76973;BME280;65907;53.640;10.050;2023-10-08T06:50:42;101878.22;;;21.98;50.81
76973;BME280;65907;53.640;10.050;2023-10-08T06:53:08;101891.09;;;22.01;50.82
76973;BME280;65907;53.640;10.050;2023-10-08T06:55:36;101890.28;;;22.01;50.70
76973;BME280;65907;53.640;10.050;2023-10-08T06:58:02;101894.56;;;22.02;50.79
76973;BME280;65907;53.640;10.050;2023-10-08T07:00:36;101903.06;;;22.05;50.77
76973;BME280;65907;53.640;10.050;2023-10-08T07:03:08;101902.22;;;22.05;50.53
76973;BME280;65907;53.640;10.050;2023-10-08T07:05:36;101904.09;;;22.03;50.82
76973;BME280;65907;53.640;10.050;2023-10-08T07:08:02;101908.41;;;22.04;50.45
76973;BME280;65907;53.640;10.050;2023-10-08T07:10:31;101914.47;;;22.04;50.53
76973;BME280;65907;53.640;10.050;2023-10-08T07:12:57;101907.34;;;22.06;50.49
76973;BME280;65907;53.640;10.050;2023-10-08T07:15:24;101919.81;;;22.03;50.67
76973;BME280;65907;53.640;10.050;2023-10-08T07:17:51;101928.53;;;22.03;50.66
76973;BME280;65907;53.640;10.050;2023-10-08T07:20:16;101922.34;;;22.04;50.50
76973;BME280;65907;53.640;10.050;2023-10-08T07:22:41;101932.81;;;22.04;50.80
76973;BME280;65907;53.640;10.050;2023-10-08T07:25:08;101940.69;;;22.04;50.49
76973;BME280;65907;53.640;10.050;2023-10-08T07:27:36;101937.94;;;22.06;50.55
76973;BME280;65907;53.640;10.050;2023-10-08T07:30:05;101940.13;;;22.12;50.68
76973;BME280;65907;53.640;10.050;2023-10-08T07:32:35;101938.22;;;22.14;50.38
76973;BME280;65907;53.640;10.050;2023-10-08T07:35:03;101929.34;;;22.17;50.12
76973;BME280;65907;53.640;10.050;2023-10-08T07:37:47;101912.22;;;22.24;50.38
76973;BME280;65907;53.640;10.050;2023-10-08T07:40:13;101919.50;;;22.08;50.40
76973;BME280;65907;53.640;10.050;2023-10-08T07:42:39;101931.31;;;22.00;51.12
76973;BME280;65907;53.640;10.050;2023-10-08T07:45:04;101926.72;;;22.17;50.24
76973;BME280;65907;53.640;10.050;2023-10-08T07:47:30;101940.44;;;22.20;50.34
76973;BME280;65907;53.640;10.050;2023-10-08T07:49:55;101936.44;;;22.28;49.89
76973;BME280;65907;53.640;10.050;2023-10-08T07:52:20;101933.81;;;22.28;49.92
76973;BME280;65907;53.640;10.050;2023-10-08T07:54:46;101951.88;;;22.19;49.97
76973;BME280;65907;53.640;10.050;2023-10-08T07:57:12;101956.97;;;22.34;49.92
76973;BME280;65907;53.640;10.050;2023-10-08T07:59:42;101968.00;;;22.26;49.97
76973;BME280;65907;53.640;10.050;2023-10-08T08:02:12;101960.69;;;21.92;50.88
76973;BME280;65907;53.640;10.050;2023-10-08T08:04:41;101961.41;;;22.20;50.53
76973;BME280;65907;53.640;10.050;2023-10-08T08:07:08;101966.88;;;22.17;50.41
76973;BME280;65907;53.640;10.050;2023-10-08T08:09:41;101966.00;;;22.30;50.18
76973;BME280;65907;53.640;10.050;2023-10-08T08:12:09;101959.72;;;22.32;49.97
76973;BME280;65907;53.640;10.050;2023-10-08T08:14:36;101962.94;;;22.36;49.89
76973;BME280;65907;53.640;10.050;2023-10-08T08:17:04;101970.09;;;22.21;50.28
76973;BME280;65907;53.640;10.050;2023-10-08T08:19:38;101977.91;;;22.60;50.02
76973;BME280;65907;53.640;10.050;2023-10-08T08:22:04;101985.72;;;22.23;50.40
76973;BME280;65907;53.640;10.050;2023-10-08T08:24:29;101985.00;;;22.08;49.43
76973;BME280;65907;53.640;10.050;2023-10-08T08:27:03;101977.59;;;21.61;49.55
76973;BME280;65907;53.640;10.050;2023-10-08T08:29:36;101979.69;;;21.28;49.70
76973;BME280;65907;53.640;10.050;2023-10-08T08:32:10;101980.84;;;20.68;50.18
76973;BME280;65907;53.640;10.050;2023-10-08T08:34:43;101978.22;;;20.97;49.80
76973;BME280;65907;53.640;10.050;2023-10-08T08:37:10;101989.88;;;21.05;50.07
76973;BME280;65907;53.640;10.050;2023-10-08T08:39:36;101992.69;;;21.43;49.29
76973;BME280;65907;53.640;10.050;2023-10-08T08:42:01;101991.41;;;21.63;49.56
76973;BME280;65907;53.640;10.050;2023-10-08T08:44:29;101992.50;;;21.86;49.82
76973;BME280;65907;53.640;10.050;2023-10-08T08:46:55;101994.63;;;22.07;49.71
76973;BME280;65907;53.640;10.050;2023-10-08T08:49:25;101992.22;;;22.17;49.87
76973;BME280;65907;53.640;10.050;2023-10-08T08:51:53;102000.72;;;22.20;49.96
76973;BME280;65907;53.640;10.050;2023-10-08T08:54:20;102006.25;;;22.29;50.05
76973;BME280;65907;53.640;10.050;2023-10-08T08:56:46;102005.00;;;22.34;50.34
76973;BME280;65907;53.640;10.050;2023-10-08T08:59:12;102021.22;;;22.40;50.31
76973;BME280;65907;53.640;10.050;2023-10-08T09:01:38;102022.69;;;22.44;50.20
76973;BME280;65907;53.640;10.050;2023-10-08T09:04:04;102018.00;;;22.62;49.67
76973;BME280;65907;53.640;10.050;2023-10-08T09:06:37;102032.97;;;22.60;49.77
76973;BME280;65907;53.640;10.050;2023-10-08T09:09:07;102031.22;;;22.47;49.66
76973;BME280;65907;53.640;10.050;2023-10-08T09:11:47;102028.16;;;22.41;50.61
76973;BME280;65907;53.640;10.050;2023-10-08T09:14:14;102026.16;;;22.31;51.07
76973;BME280;65907;53.640;10.050;2023-10-08T09:16:40;102028.16;;;22.28;51.19
76973;BME280;65907;53.640;10.050;2023-10-08T09:19:05;102032.16;;;22.20;51.42
76973;BME280;65907;53.640;10.050;2023-10-08T09:21:36;102046.72;;;22.25;51.19
76973;BME280;65907;53.640;10.050;2023-10-08T09:24:02;102044.72;;;22.41;50.39
76973;BME280;65907;53.640;10.050;2023-10-08T09:26:33;102042.44;;;22.49;50.46
76973;BME280;65907;53.640;10.050;2023-10-08T09:29:02;102043.47;;;22.47;50.47
76973;BME280;65907;53.640;10.050;2023-10-08T09:31:29;102041.38;;;22.26;50.91
76973;BME280;65907;53.640;10.050;2023-10-08T09:34:00;102041.47;;;22.25;50.97
76973;BME280;65907;53.640;10.050;2023-10-08T09:36:25;102041.97;;;22.17;51.15
76973;BME280;65907;53.640;10.050;2023-10-08T09:39:05;102041.88;;;22.18;51.30
76973;BME280;65907;53.640;10.050;2023-10-08T09:41:32;102033.38;;;22.15;51.81
76973;BME280;65907;53.640;10.050;2023-10-08T09:43:58;102034.25;;;22.15;51.11
76973;BME280;65907;53.640;10.050;2023-10-08T09:46:25;102028.28;;;22.39;50.53
76973;BME280;65907;53.640;10.050;2023-10-08T09:48:55;102023.97;;;22.38;50.85
76973;BME280;65907;53.640;10.050;2023-10-08T09:51:21;102021.44;;;22.37;50.79
76973;BME280;65907;53.640;10.050;2023-10-08T09:56:14;102030.34;;;22.34;50.62
76973;BME280;65907;53.640;10.050;2023-10-08T09:58:41;102037.59;;;22.17;51.61
76973;BME280;65907;53.640;10.050;2023-10-08T10:01:06;102030.34;;;22.08;51.80
76973;BME280;65907;53.640;10.050;2023-10-08T10:03:32;102020.72;;;22.09;51.87
76973;BME280;65907;53.640;10.050;2023-10-08T10:06:01;102022.47;;;22.08;52.07
76973;BME280;65907;53.640;10.050;2023-10-08T10:08:26;102017.97;;;22.10;52.06
76973;BME280;65907;53.640;10.050;2023-10-08T10:11:01;102008.97;;;22.14;52.14
76973;BME280;65907;53.640;10.050;2023-10-08T10:13:45;102022.28;;;22.24;51.57
76973;BME280;65907;53.640;10.050;2023-10-08T10:16:17;102018.19;;;22.20;51.55
76973;BME280;65907;53.640;10.050;2023-10-08T10:18:46;102038.53;;;22.16;52.27
76973;BME280;65907;53.640;10.050;2023-10-08T10:23:39;102028.38;;;22.12;52.10
76973;BME280;65907;53.640;10.050;2023-10-08T10:26:20;102028.88;;;22.30;51.38
76973;BME280;65907;53.640;10.050;2023-10-08T10:29:10;102049.75;;;22.44;50.95
76973;BME280;65907;53.640;10.050;2023-10-08T10:31:34;102068.72;;;22.48;50.79
76973;BME280;65907;53.640;10.050;2023-10-08T10:34:05;102072.22;;;22.48;50.69
76973;BME280;65907;53.640;10.050;2023-10-08T10:36:33;102064.53;;;22.45;50.74
76973;BME280;65907;53.640;10.050;2023-10-08T10:38:58;102049.56;;;22.47;50.68
76973;BME280;65907;53.640;10.050;2023-10-08T10:41:23;102064.63;;;22.44;50.74
76973;BME280;65907;53.640;10.050;2023-10-08T10:43:49;102068.50;;;22.25;51.51
76973;BME280;65907;53.640;10.050;2023-10-08T10:46:18;102057.81;;;22.28;51.15
76973;BME280;65907;53.640;10.050;2023-10-08T10:48:56;102052.47;;;22.17;51.43
76973;BME280;65907;53.640;10.050;2023-10-08T10:51:43;102036.00;;;22.15;51.66
76973;BME280;65907;53.640;10.050;2023-10-08T10:54:09;102050.69;;;22.17;48.09
76973;BME280;65907;53.640;10.050;2023-10-08T10:56:47;102054.72;;;21.83;45.56
76973;BME280;65907;53.640;10.050;2023-10-08T10:59:13;102060.97;;;21.67;45.28
76973;BME280;65907;53.640;10.050;2023-10-08T11:01:45;102056.44;;;21.42;44.31
76973;BME280;65907;53.640;10.050;2023-10-08T11:04:17;102084.34;;;21.14;43.64
76973;BME280;65907;53.640;10.050;2023-10-08T11:06:45;102056.53;;;20.98;42.81
76973;BME280;65907;53.640;10.050;2023-10-08T11:09:11;102039.16;;;20.97;42.66
76973;BME280;65907;53.640;10.050;2023-10-08T11:11:42;102041.44;;;20.89;42.89
76973;BME280;65907;53.640;10.050;2023-10-08T11:14:10;102050.09;;;20.60;42.08
76973;BME280;65907;53.640;10.050;2023-10-08T11:16:40;102057.19;;;20.58;42.10
76973;BME280;65907;53.640;10.050;2023-10-08T11:19:08;102063.28;;;20.59;42.00
76973;BME280;65907;53.640;10.050;2023-10-08T11:21:47;102029.19;;;20.60;42.68
76973;BME280;65907;53.640;10.050;2023-10-08T11:24:12;102005.97;;;20.56;42.44
76973;BME280;65907;53.640;10.050;2023-10-08T11:26:50;102024.25;;;20.70;41.96
76973;BME280;65907;53.640;10.050;2023-10-08T11:29:31;102027.97;;;20.66;42.17
76973;BME280;65907;53.640;10.050;2023-10-08T11:31:57;102051.88;;;20.60;42.16
76973;BME280;65907;53.640;10.050;2023-10-08T11:34:31;102065.97;;;20.57;41.73
76973;BME280;65907;53.640;10.050;2023-10-08T11:37:01;102065.78;;;20.46;43.49
76973;BME280;65907;53.640;10.050;2023-10-08T11:39:35;102067.72;;;20.42;42.74
76973;BME280;65907;53.640;10.050;2023-10-08T11:42:10;102055.78;;;20.53;43.45
76973;BME280;65907;53.640;10.050;2023-10-08T11:44:55;102030.88;;;20.47;42.91
76973;BME280;65907;53.640;10.050;2023-10-08T11:47:24;102022.13;;;20.48;43.67
76973;BME280;65907;53.640;10.050;2023-10-08T11:49:50;102019.41;;;20.78;43.27
76973;BME280;65907;53.640;10.050;2023-10-08T11:52:19;102020.78;;;20.99;43.71
76973;BME280;65907;53.640;10.050;2023-10-08T11:54:48;102023.38;;;21.13;43.65
76973;BME280;65907;53.640;10.050;2023-10-08T11:57:14;102040.16;;;21.24;43.75
76973;BME280;65907;53.640;10.050;2023-10-08T11:59:39;102039.47;;;21.34;43.96
76973;BME280;65907;53.640;10.050;2023-10-08T12:02:05;102046.81;;;21.42;44.42
76973;BME280;65907;53.640;10.050;2023-10-08T12:04:30;102037.75;;;21.48;44.52
76973;BME280;65907;53.640;10.050;2023-10-08T12:06:59;102033.03;;;21.53;44.55
76973;BME280;65907;53.640;10.050;2023-10-08T12:09:27;102030.03;;;21.59;44.56
76973;BME280;65907;53.640;10.050;2023-10-08T12:11:53;102020.09;;;21.65;44.60
76973;BME280;65907;53.640;10.050;2023-10-08T12:14:18;102021.69;;;21.67;44.78
76973;BME280;65907;53.640;10.050;2023-10-08T12:16:43;102016.25;;;21.70;44.65
76973;BME280;65907;53.640;10.050;2023-10-08T12:19:10;102024.03;;;21.72;45.15
76973;BME280;65907;53.640;10.050;2023-10-08T12:21:42;102020.47;;;21.73;45.13
76973;BME280;65907;53.640;10.050;2023-10-08T12:24:13;102020.34;;;21.74;45.39
76973;BME280;65907;53.640;10.050;2023-10-08T12:26:39;102014.06;;;21.77;45.81
76973;BME280;65907;53.640;10.050;2023-10-08T12:29:13;102014.91;;;21.77;45.83
76973;BME280;65907;53.640;10.050;2023-10-08T12:31:44;102021.63;;;21.82;45.51
76973;BME280;65907;53.640;10.050;2023-10-08T12:34:12;102013.78;;;21.82;45.84
76973;BME280;65907;53.640;10.050;2023-10-08T12:36:38;102003.31;;;21.82;45.93
76973;BME280;65907;53.640;10.050;2023-10-08T12:39:03;102004.03;;;21.84;45.82
76973;BME280;65907;53.640;10.050;2023-10-08T12:41:35;101985.59;;;21.85;46.13
76973;BME280;65907;53.640;10.050;2023-10-08T12:44:03;101985.38;;;21.88;46.13
76973;BME280;65907;53.640;10.050;2023-10-08T12:46:32;101978.47;;;21.87;46.17
76973;BME280;65907;53.640;10.050;2023-10-08T12:48:58;101972.28;;;21.88;46.24
76973;BME280;65907;53.640;10.050;2023-10-08T12:51:26;101953.88;;;21.90;46.39
76973;BME280;65907;53.640;10.050;2023-10-08T12:53:56;101946.84;;;21.90;46.30
76973;BME280;65907;53.640;10.050;2023-10-08T12:56:36;101943.31;;;21.91;46.40
76973;BME280;65907;53.640;10.050;2023-10-08T12:59:04;101941.41;;;21.94;46.55
76973;BME280;65907;53.640;10.050;2023-10-08T13:01:31;101948.31;;;21.95;46.55